sensor_id;sensor_type;location;lat;lon;timestamp;P1;durP1;ratioP1;P2;durP2;ratioP2
65420;SDS011;52028;50.658;14.004;2023-02-12T00:02:15;8.65;;;4.38;;
65420;SDS011;52028;50.658;14.004;2023-02-12T00:04:41;9.13;;;4.90;;
65420;SDS011;52028;50.658;14.004;2023-02-12T00:07:07;9.50;;;4.93;;
65420;SDS011;52028;50.658;14.004;2023-02-12T00:09:32;11.38;;;5.07;;
65420;SDS011;52028;50.658;14.004;2023-02-12T00:11:57;8.75;;;4.75;;
65420;SDS011;52028;50.658;14.004;2023-02-12T00:14:23;8.10;;;4.40;;
65420;SDS011;52028;50.658;14.004;2023-02-12T00:16:48;9.82;;;4.82;;
65420;SDS011;52028;50.658;14.004;2023-02-12T00:19:14;9.05;;;4.95;;
65420;SDS011;52028;50.658;14.004;2023-02-12T00:21:39;9.73;;;5.30;;
65420;SDS011;52028;50.658;14.004;2023-02-12T00:24:05;10.50;;;5.35;;
65420;SDS011;52028;50.658;14.004;2023-02-12T00:26:30;10.77;;;5.80;;
65420;SDS011;52028;50.658;14.004;2023-02-12T00:28:56;9.25;;;5.25;;
65420;SDS011;52028;50.658;14.004;2023-02-12T00:31:25;12.15;;;5.55;;
65420;SDS011;52028;50.658;14.004;2023-02-12T00:33:52;8.43;;;5.28;;
65420;SDS011;52028;50.658;14.004;2023-02-12T00:36:19;9.90;;;4.95;;
65420;SDS011;52028;50.658;14.004;2023-02-12T00:38:46;10.90;;;5.55;;
65420;SDS011;52028;50.658;14.004;2023-02-12T00:41:14;9.20;;;4.80;;
65420;SDS011;52028;50.658;14.004;2023-02-12T00:43:40;11.13;;;5.20;;
65420;SDS011;52028;50.658;14.004;2023-02-12T00:46:05;10.25;;;5.30;;
65420;SDS011;52028;50.658;14.004;2023-02-12T00:48:31;11.35;;;6.00;;
65420;SDS011;52028;50.658;14.004;2023-02-12T00:50:57;13.85;;;6.25;;
65420;SDS011;52028;50.658;14.004;2023-02-12T00:53:23;11.38;;;5.57;;
65420;SDS011;52028;50.658;14.004;2023-02-12T00:55:48;12.77;;;6.25;;
65420;SDS011;52028;50.658;14.004;2023-02-12T00:58:14;14.15;;;6.72;;
65420;SDS011;52028;50.658;14.004;2023-02-12T01:00:40;13.07;;;6.07;;
65420;SDS011;52028;50.658;14.004;2023-02-12T01:03:06;13.75;;;6.80;;
65420;SDS011;52028;50.658;14.004;2023-02-12T01:05:31;15.73;;;7.45;;
65420;SDS011;52028;50.658;14.004;2023-02-12T01:07:57;13.25;;;5.95;;
65420;SDS011;52028;50.658;14.004;2023-02-12T01:10:22;14.48;;;6.55;;
65420;SDS011;52028;50.658;14.004;2023-02-12T01:12:48;12.82;;;6.45;;
65420;SDS011;52028;50.658;14.004;2023-02-12T01:15:14;13.73;;;6.25;;
65420;SDS011;52028;50.658;14.004;2023-02-12T01:17:40;12.73;;;6.88;;
65420;SDS011;52028;50.658;14.004;2023-02-12T01:20:06;15.15;;;6.35;;
65420;SDS011;52028;50.658;14.004;2023-02-12T01:22:33;15.00;;;6.78;;
65420;SDS011;52028;50.658;14.004;2023-02-12T01:25:00;13.25;;;5.72;;
65420;SDS011;52028;50.658;14.004;2023-02-12T01:27:25;13.10;;;6.43;;
65420;SDS011;52028;50.658;14.004;2023-02-12T01:29:50;18.23;;;6.95;;
65420;SDS011;52028;50.658;14.004;2023-02-12T01:32:16;14.02;;;5.95;;
65420;SDS011;52028;50.658;14.004;2023-02-12T01:34:42;15.98;;;7.00;;
65420;SDS011;52028;50.658;14.004;2023-02-12T01:37:08;18.05;;;7.53;;
65420;SDS011;52028;50.658;14.004;2023-02-12T01:39:33;18.25;;;6.93;;
65420;SDS011;52028;50.658;14.004;2023-02-12T01:42:00;14.10;;;6.72;;
65420;SDS011;52028;50.658;14.004;2023-02-12T01:44:29;12.43;;;6.03;;
65420;SDS011;52028;50.658;14.004;2023-02-12T01:46:56;12.95;;;5.82;;
65420;SDS011;52028;50.658;14.004;2023-02-12T01:49:25;15.93;;;7.50;;
65420;SDS011;52028;50.658;14.004;2023-02-12T01:51:58;15.77;;;6.97;;
65420;SDS011;52028;50.658;14.004;2023-02-12T01:54:28;15.05;;;6.28;;
65420;SDS011;52028;50.658;14.004;2023-02-12T01:56:54;18.80;;;6.68;;
65420;SDS011;52028;50.658;14.004;2023-02-12T01:59:20;14.35;;;7.15;;
65420;SDS011;52028;50.658;14.004;2023-02-12T02:01:46;12.77;;;6.68;;
65420;SDS011;52028;50.658;14.004;2023-02-12T02:04:12;15.50;;;6.45;;
65420;SDS011;52028;50.658;14.004;2023-02-12T02:06:43;18.73;;;7.57;;
65420;SDS011;52028;50.658;14.004;2023-02-12T02:09:12;17.20;;;7.28;;
65420;SDS011;52028;50.658;14.004;2023-02-12T02:11:38;15.93;;;7.28;;
65420;SDS011;52028;50.658;14.004;2023-02-12T02:14:22;16.05;;;7.47;;
65420;SDS011;52028;50.658;14.004;2023-02-12T02:24:46;11.13;;;5.22;;
65420;SDS011;52028;50.658;14.004;2023-02-12T02:33:03;16.58;;;7.40;;
65420;SDS011;52028;50.658;14.004;2023-02-12T02:41:31;11.38;;;5.45;;
65420;SDS011;52028;50.658;14.004;2023-02-12T02:44:03;16.60;;;7.93;;
65420;SDS011;52028;50.658;14.004;2023-02-12T02:46:39;17.42;;;7.57;;
65420;SDS011;52028;50.658;14.004;2023-02-12T02:49:12;14.80;;;6.50;;
65420;SDS011;52028;50.658;14.004;2023-02-12T02:51:44;15.75;;;6.93;;
65420;SDS011;52028;50.658;14.004;2023-02-12T02:54:15;18.35;;;8.25;;
65420;SDS011;52028;50.658;14.004;2023-02-12T02:56:44;23.08;;;9.90;;
65420;SDS011;52028;50.658;14.004;2023-02-12T03:01:45;17.15;;;6.70;;
65420;SDS011;52028;50.658;14.004;2023-02-12T03:04:19;21.15;;;8.95;;
65420;SDS011;52028;50.658;14.004;2023-02-12T03:06:57;20.40;;;8.18;;
65420;SDS011;52028;50.658;14.004;2023-02-12T03:09:35;22.80;;;9.18;;
65420;SDS011;52028;50.658;14.004;2023-02-12T03:12:03;30.35;;;11.02;;
65420;SDS011;52028;50.658;14.004;2023-02-12T03:14:37;28.08;;;10.65;;
65420;SDS011;52028;50.658;14.004;2023-02-12T03:17:10;26.10;;;11.30;;
65420;SDS011;52028;50.658;14.004;2023-02-12T03:19:44;22.10;;;9.38;;
65420;SDS011;52028;50.658;14.004;2023-02-12T03:22:20;30.27;;;12.63;;
65420;SDS011;52028;50.658;14.004;2023-02-12T03:31:08;21.65;;;8.73;;
65420;SDS011;52028;50.658;14.004;2023-02-12T03:34:12;20.83;;;7.53;;
65420;SDS011;52028;50.658;14.004;2023-02-12T03:37:10;20.33;;;8.50;;
65420;SDS011;52028;50.658;14.004;2023-02-12T03:45:28;21.17;;;8.65;;
65420;SDS011;52028;50.658;14.004;2023-02-12T03:53:18;24.55;;;9.00;;
65420;SDS011;52028;50.658;14.004;2023-02-12T03:55:44;19.25;;;8.05;;
65420;SDS011;52028;50.658;14.004;2023-02-12T03:58:13;22.35;;;9.02;;
65420;SDS011;52028;50.658;14.004;2023-02-12T04:00:44;20.45;;;10.13;;
65420;SDS011;52028;50.658;14.004;2023-02-12T04:03:10;17.95;;;8.45;;
65420;SDS011;52028;50.658;14.004;2023-02-12T04:05:36;21.20;;;9.68;;
65420;SDS011;52028;50.658;14.004;2023-02-12T04:08:01;22.42;;;9.55;;
65420;SDS011;52028;50.658;14.004;2023-02-12T04:10:35;21.20;;;9.30;;
65420;SDS011;52028;50.658;14.004;2023-02-12T04:13:11;22.77;;;9.45;;
65420;SDS011;52028;50.658;14.004;2023-02-12T04:15:45;21.35;;;9.02;;
65420;SDS011;52028;50.658;14.004;2023-02-12T04:18:34;25.50;;;8.95;;
65420;SDS011;52028;50.658;14.004;2023-02-12T04:32:14;21.42;;;8.20;;
65420;SDS011;52028;50.658;14.004;2023-02-12T04:37:12;15.60;;;7.10;;
65420;SDS011;52028;50.658;14.004;2023-02-12T04:39:48;15.27;;;5.47;;
65420;SDS011;52028;50.658;14.004;2023-02-12T04:42:15;17.70;;;7.50;;
65420;SDS011;52028;50.658;14.004;2023-02-12T04:44:41;16.33;;;7.45;;
65420;SDS011;52028;50.658;14.004;2023-02-12T04:47:09;16.58;;;8.57;;
65420;SDS011;52028;50.658;14.004;2023-02-12T04:49:36;21.25;;;7.95;;
65420;SDS011;52028;50.658;14.004;2023-02-12T04:52:02;17.65;;;7.68;;
65420;SDS011;52028;50.658;14.004;2023-02-12T04:54:27;16.55;;;7.43;;
65420;SDS011;52028;50.658;14.004;2023-02-12T04:56:53;19.50;;;8.55;;
65420;SDS011;52028;50.658;14.004;2023-02-12T04:59:18;18.17;;;8.38;;
65420;SDS011;52028;50.658;14.004;2023-02-12T05:01:44;21.33;;;8.70;;
65420;SDS011;52028;50.658;14.004;2023-02-12T05:04:10;20.70;;;8.18;;
65420;SDS011;52028;50.658;14.004;2023-02-12T05:06:37;24.90;;;8.88;;
65420;SDS011;52028;50.658;14.004;2023-02-12T05:09:03;40.92;;;15.05;;
65420;SDS011;52028;50.658;14.004;2023-02-12T05:11:29;29.85;;;11.85;;
65420;SDS011;52028;50.658;14.004;2023-02-12T05:13:55;37.55;;;15.40;;
65420;SDS011;52028;50.658;14.004;2023-02-12T05:16:20;31.15;;;13.02;;
65420;SDS011;52028;50.658;14.004;2023-02-12T05:18:46;25.80;;;11.10;;
65420;SDS011;52028;50.658;14.004;2023-02-12T05:21:12;28.05;;;11.23;;
65420;SDS011;52028;50.658;14.004;2023-02-12T05:23:38;28.42;;;12.20;;
65420;SDS011;52028;50.658;14.004;2023-02-12T05:26:09;32.97;;;13.55;;
65420;SDS011;52028;50.658;14.004;2023-02-12T05:28:39;28.38;;;12.23;;
65420;SDS011;52028;50.658;14.004;2023-02-12T05:31:06;26.95;;;11.98;;
65420;SDS011;52028;50.658;14.004;2023-02-12T05:33:32;29.30;;;11.68;;
65420;SDS011;52028;50.658;14.004;2023-02-12T05:36:04;23.83;;;11.73;;
65420;SDS011;52028;50.658;14.004;2023-02-12T05:38:31;30.05;;;12.27;;
65420;SDS011;52028;50.658;14.004;2023-02-12T05:41:04;28.25;;;12.13;;
65420;SDS011;52028;50.658;14.004;2023-02-12T05:43:34;35.47;;;14.73;;
65420;SDS011;52028;50.658;14.004;2023-02-12T05:46:00;26.63;;;12.07;;
65420;SDS011;52028;50.658;14.004;2023-02-12T05:48:28;33.10;;;13.50;;
65420;SDS011;52028;50.658;14.004;2023-02-12T05:50:54;84.90;;;33.72;;
65420;SDS011;52028;50.658;14.004;2023-02-12T05:53:25;79.50;;;32.08;;
65420;SDS011;52028;50.658;14.004;2023-02-12T05:55:50;63.83;;;24.65;;
65420;SDS011;52028;50.658;14.004;2023-02-12T05:58:16;45.92;;;20.48;;
65420;SDS011;52028;50.658;14.004;2023-02-12T06:00:41;49.55;;;19.73;;
65420;SDS011;52028;50.658;14.004;2023-02-12T06:03:06;47.70;;;18.60;;
65420;SDS011;52028;50.658;14.004;2023-02-12T06:05:32;44.03;;;17.85;;
65420;SDS011;52028;50.658;14.004;2023-02-12T06:07:57;40.35;;;16.38;;
65420;SDS011;52028;50.658;14.004;2023-02-12T06:10:22;51.92;;;21.50;;
65420;SDS011;52028;50.658;14.004;2023-02-12T06:12:52;44.85;;;19.00;;
65420;SDS011;52028;50.658;14.004;2023-02-12T06:15:18;49.10;;;20.80;;
65420;SDS011;52028;50.658;14.004;2023-02-12T06:17:43;42.75;;;18.05;;
65420;SDS011;52028;50.658;14.004;2023-02-12T06:20:08;41.05;;;17.25;;
65420;SDS011;52028;50.658;14.004;2023-02-12T06:22:34;34.53;;;15.05;;
65420;SDS011;52028;50.658;14.004;2023-02-12T06:25:00;42.35;;;15.70;;
65420;SDS011;52028;50.658;14.004;2023-02-12T06:27:25;37.80;;;14.13;;
65420;SDS011;52028;50.658;14.004;2023-02-12T06:29:50;25.63;;;10.93;;
65420;SDS011;52028;50.658;14.004;2023-02-12T06:32:16;26.23;;;9.88;;
65420;SDS011;52028;50.658;14.004;2023-02-12T06:34:41;21.92;;;10.40;;
65420;SDS011;52028;50.658;14.004;2023-02-12T06:37:06;26.77;;;12.95;;
65420;SDS011;52028;50.658;14.004;2023-02-12T06:39:32;39.03;;;15.77;;
65420;SDS011;52028;50.658;14.004;2023-02-12T06:41:57;44.30;;;17.48;;
65420;SDS011;52028;50.658;14.004;2023-02-12T06:44:23;47.13;;;19.10;;
65420;SDS011;52028;50.658;14.004;2023-02-12T06:46:48;44.15;;;18.05;;
65420;SDS011;52028;50.658;14.004;2023-02-12T06:49:13;44.17;;;16.63;;
65420;SDS011;52028;50.658;14.004;2023-02-12T06:51:40;39.30;;;16.70;;
65420;SDS011;52028;50.658;14.004;2023-02-12T06:54:10;35.13;;;15.57;;
65420;SDS011;52028;50.658;14.004;2023-02-12T06:56:39;40.80;;;16.73;;
65420;SDS011;52028;50.658;14.004;2023-02-12T06:59:05;36.60;;;15.23;;
65420;SDS011;52028;50.658;14.004;2023-02-12T07:01:30;42.70;;;17.00;;
65420;SDS011;52028;50.658;14.004;2023-02-12T07:03:59;36.42;;;17.02;;
65420;SDS011;52028;50.658;14.004;2023-02-12T07:06:27;40.20;;;17.52;;
65420;SDS011;52028;50.658;14.004;2023-02-12T07:08:54;44.25;;;18.50;;
65420;SDS011;52028;50.658;14.004;2023-02-12T07:11:24;38.70;;;17.42;;
65420;SDS011;52028;50.658;14.004;2023-02-12T07:13:51;38.20;;;16.95;;
65420;SDS011;52028;50.658;14.004;2023-02-12T07:16:16;40.92;;;16.85;;
65420;SDS011;52028;50.658;14.004;2023-02-12T07:18:43;40.30;;;17.92;;
65420;SDS011;52028;50.658;14.004;2023-02-12T07:21:09;34.78;;;16.58;;
65420;SDS011;52028;50.658;14.004;2023-02-12T07:23:36;38.38;;;17.45;;
65420;SDS011;52028;50.658;14.004;2023-02-12T07:26:07;61.30;;;26.40;;
65420;SDS011;52028;50.658;14.004;2023-02-12T07:28:36;53.70;;;26.20;;
65420;SDS011;52028;50.658;14.004;2023-02-12T07:31:09;48.22;;;25.23;;
65420;SDS011;52028;50.658;14.004;2023-02-12T07:33:42;49.90;;;24.60;;
65420;SDS011;52028;50.658;14.004;2023-02-12T07:36:10;54.30;;;26.48;;
65420;SDS011;52028;50.658;14.004;2023-02-12T07:38:37;45.53;;;23.02;;
65420;SDS011;52028;50.658;14.004;2023-02-12T07:41:27;54.90;;;25.65;;
65420;SDS011;52028;50.658;14.004;2023-02-12T07:43:56;44.42;;;22.25;;
65420;SDS011;52028;50.658;14.004;2023-02-12T07:46:24;48.30;;;22.23;;
65420;SDS011;52028;50.658;14.004;2023-02-12T07:48:56;43.25;;;20.02;;
65420;SDS011;52028;50.658;14.004;2023-02-12T07:51:23;42.15;;;19.92;;
65420;SDS011;52028;50.658;14.004;2023-02-12T07:53:49;37.95;;;17.92;;
65420;SDS011;52028;50.658;14.004;2023-02-12T07:56:15;36.63;;;17.50;;
65420;SDS011;52028;50.658;14.004;2023-02-12T07:58:43;35.90;;;15.35;;
65420;SDS011;52028;50.658;14.004;2023-02-12T08:01:11;34.70;;;16.92;;
65420;SDS011;52028;50.658;14.004;2023-02-12T08:03:41;31.45;;;15.32;;
65420;SDS011;52028;50.658;14.004;2023-02-12T08:06:12;27.65;;;13.70;;
65420;SDS011;52028;50.658;14.004;2023-02-12T08:08:45;25.88;;;12.05;;
65420;SDS011;52028;50.658;14.004;2023-02-12T08:11:11;24.75;;;11.20;;
65420;SDS011;52028;50.658;14.004;2023-02-12T08:13:38;24.40;;;11.50;;
65420;SDS011;52028;50.658;14.004;2023-02-12T08:16:09;26.83;;;11.55;;
65420;SDS011;52028;50.658;14.004;2023-02-12T08:18:39;30.40;;;12.50;;
65420;SDS011;52028;50.658;14.004;2023-02-12T08:21:09;24.92;;;11.98;;
65420;SDS011;52028;50.658;14.004;2023-02-12T08:23:34;27.38;;;11.65;;
65420;SDS011;52028;50.658;14.004;2023-02-12T08:26:03;24.88;;;11.60;;
65420;SDS011;52028;50.658;14.004;2023-02-12T08:28:34;26.17;;;11.13;;
65420;SDS011;52028;50.658;14.004;2023-02-12T08:31:02;24.95;;;11.30;;
65420;SDS011;52028;50.658;14.004;2023-02-12T08:33:29;26.40;;;11.10;;
65420;SDS011;52028;50.658;14.004;2023-02-12T08:36:07;25.45;;;12.23;;
65420;SDS011;52028;50.658;14.004;2023-02-12T08:38:35;22.55;;;10.38;;
65420;SDS011;52028;50.658;14.004;2023-02-12T08:41:02;26.35;;;12.15;;
65420;SDS011;52028;50.658;14.004;2023-02-12T08:43:31;32.08;;;14.30;;
65420;SDS011;52028;50.658;14.004;2023-02-12T08:46:04;42.72;;;22.17;;
65420;SDS011;52028;50.658;14.004;2023-02-12T08:48:34;42.97;;;22.27;;
65420;SDS011;52028;50.658;14.004;2023-02-12T08:51:10;50.42;;;24.63;;
65420;SDS011;52028;50.658;14.004;2023-02-12T08:53:36;38.88;;;22.08;;
65420;SDS011;52028;50.658;14.004;2023-02-12T08:56:03;38.33;;;21.17;;
65420;SDS011;52028;50.658;14.004;2023-02-12T08:58:29;34.50;;;18.23;;
65420;SDS011;52028;50.658;14.004;2023-02-12T09:00:54;35.22;;;17.98;;
65420;SDS011;52028;50.658;14.004;2023-02-12T09:03:20;30.75;;;15.88;;
65420;SDS011;52028;50.658;14.004;2023-02-12T09:05:45;31.73;;;15.73;;
65420;SDS011;52028;50.658;14.004;2023-02-12T09:08:11;29.88;;;13.55;;
65420;SDS011;52028;50.658;14.004;2023-02-12T09:10:40;35.03;;;15.32;;
65420;SDS011;52028;50.658;14.004;2023-02-12T09:13:10;24.38;;;12.68;;
65420;SDS011;52028;50.658;14.004;2023-02-12T09:15:37;25.52;;;11.60;;
65420;SDS011;52028;50.658;14.004;2023-02-12T09:18:03;26.15;;;11.65;;
65420;SDS011;52028;50.658;14.004;2023-02-12T09:20:30;25.10;;;11.50;;
65420;SDS011;52028;50.658;14.004;2023-02-12T09:22:56;26.30;;;11.55;;
65420;SDS011;52028;50.658;14.004;2023-02-12T09:25:22;27.77;;;11.68;;
65420;SDS011;52028;50.658;14.004;2023-02-12T09:27:48;24.10;;;12.38;;
65420;SDS011;52028;50.658;14.004;2023-02-12T09:30:13;27.80;;;12.13;;
65420;SDS011;52028;50.658;14.004;2023-02-12T09:32:39;28.55;;;13.73;;
65420;SDS011;52028;50.658;14.004;2023-02-12T09:35:04;37.97;;;19.45;;
65420;SDS011;52028;50.658;14.004;2023-02-12T09:37:30;30.63;;;14.50;;
65420;SDS011;52028;50.658;14.004;2023-02-12T09:39:55;28.50;;;13.48;;
65420;SDS011;52028;50.658;14.004;2023-02-12T09:45:16;31.63;;;13.93;;
65420;SDS011;52028;50.658;14.004;2023-02-12T09:53:09;33.08;;;15.32;;
65420;SDS011;52028;50.658;14.004;2023-02-12T09:55:38;32.55;;;16.33;;
65420;SDS011;52028;50.658;14.004;2023-02-12T09:58:06;35.17;;;16.85;;
65420;SDS011;52028;50.658;14.004;2023-02-12T10:00:38;34.33;;;16.55;;
65420;SDS011;52028;50.658;14.004;2023-02-12T10:03:04;29.48;;;16.17;;
65420;SDS011;52028;50.658;14.004;2023-02-12T10:05:39;31.38;;;16.48;;
65420;SDS011;52028;50.658;14.004;2023-02-12T10:27:14;33.17;;;18.75;;
65420;SDS011;52028;50.658;14.004;2023-02-12T10:29:41;45.45;;;20.95;;
65420;SDS011;52028;50.658;14.004;2023-02-12T10:32:22;39.08;;;20.35;;
65420;SDS011;52028;50.658;14.004;2023-02-12T10:34:51;42.72;;;21.60;;
65420;SDS011;52028;50.658;14.004;2023-02-12T10:37:24;36.92;;;21.73;;
65420;SDS011;52028;50.658;14.004;2023-02-12T10:40:03;32.80;;;17.83;;
65420;SDS011;52028;50.658;14.004;2023-02-12T10:42:38;31.98;;;16.38;;
65420;SDS011;52028;50.658;14.004;2023-02-12T10:45:11;35.85;;;18.75;;
65420;SDS011;52028;50.658;14.004;2023-02-12T10:47:38;36.15;;;17.98;;
65420;SDS011;52028;50.658;14.004;2023-02-12T10:50:07;35.17;;;17.85;;
65420;SDS011;52028;50.658;14.004;2023-02-12T10:52:46;31.08;;;16.27;;
65420;SDS011;52028;50.658;14.004;2023-02-12T10:55:25;36.00;;;16.48;;
65420;SDS011;52028;50.658;14.004;2023-02-12T10:57:52;31.58;;;16.23;;
65420;SDS011;52028;50.658;14.004;2023-02-12T11:00:36;26.10;;;13.90;;
65420;SDS011;52028;50.658;14.004;2023-02-12T11:05:40;27.58;;;13.95;;
65420;SDS011;52028;50.658;14.004;2023-02-12T11:08:10;28.08;;;13.45;;
65420;SDS011;52028;50.658;14.004;2023-02-12T11:10:50;23.17;;;11.25;;
65420;SDS011;52028;50.658;14.004;2023-02-12T11:13:23;22.10;;;11.30;;
65420;SDS011;52028;50.658;14.004;2023-02-12T11:15:50;19.60;;;9.88;;
65420;SDS011;52028;50.658;14.004;2023-02-12T11:18:23;18.55;;;10.38;;
65420;SDS011;52028;50.658;14.004;2023-02-12T11:20:51;21.90;;;11.30;;
65420;SDS011;52028;50.658;14.004;2023-02-12T11:26:22;22.63;;;11.00;;
65420;SDS011;52028;50.658;14.004;2023-02-12T11:31:40;29.48;;;12.75;;
65420;SDS011;52028;50.658;14.004;2023-02-12T11:34:07;26.98;;;11.52;;
65420;SDS011;52028;50.658;14.004;2023-02-12T11:36:38;19.30;;;10.77;;
65420;SDS011;52028;50.658;14.004;2023-02-12T11:39:12;25.30;;;10.25;;
65420;SDS011;52028;50.658;14.004;2023-02-12T11:41:47;26.67;;;11.15;;
65420;SDS011;52028;50.658;14.004;2023-02-12T11:44:24;25.92;;;12.57;;
65420;SDS011;52028;50.658;14.004;2023-02-12T11:46:59;24.98;;;12.05;;
65420;SDS011;52028;50.658;14.004;2023-02-12T11:49:31;19.13;;;10.05;;
65420;SDS011;52028;50.658;14.004;2023-02-12T11:52:01;21.38;;;11.00;;
65420;SDS011;52028;50.658;14.004;2023-02-12T11:54:29;24.90;;;11.70;;
65420;SDS011;52028;50.658;14.004;2023-02-12T11:57:04;22.50;;;10.52;;
65420;SDS011;52028;50.658;14.004;2023-02-12T11:59:31;21.63;;;10.52;;
65420;SDS011;52028;50.658;14.004;2023-02-12T12:02:23;25.25;;;10.18;;
65420;SDS011;52028;50.658;14.004;2023-02-12T12:05:05;18.60;;;8.95;;
65420;SDS011;52028;50.658;14.004;2023-02-12T12:07:35;19.23;;;8.65;;
65420;SDS011;52028;50.658;14.004;2023-02-12T12:12:50;25.10;;;11.55;;
65420;SDS011;52028;50.658;14.004;2023-02-12T12:15:39;30.52;;;11.80;;
65420;SDS011;52028;50.658;14.004;2023-02-12T12:24:25;25.00;;;11.93;;
65420;SDS011;52028;50.658;14.004;2023-02-12T12:26:59;29.08;;;12.40;;
65420;SDS011;52028;50.658;14.004;2023-02-12T12:32:03;27.05;;;12.00;;
65420;SDS011;52028;50.658;14.004;2023-02-12T12:34:30;20.20;;;9.82;;
65420;SDS011;52028;50.658;14.004;2023-02-12T12:48:04;20.00;;;8.98;;
65420;SDS011;52028;50.658;14.004;2023-02-12T12:58:36;21.58;;;9.57;;
65420;SDS011;52028;50.658;14.004;2023-02-12T13:01:36;27.38;;;10.93;;
65420;SDS011;52028;50.658;14.004;2023-02-12T13:15:13;24.20;;;10.65;;
65420;SDS011;52028;50.658;14.004;2023-02-12T13:26:18;22.20;;;8.65;;
65420;SDS011;52028;50.658;14.004;2023-02-12T13:29:11;17.50;;;8.73;;
65420;SDS011;52028;50.658;14.004;2023-02-12T13:31:48;18.65;;;8.05;;
65420;SDS011;52028;50.658;14.004;2023-02-12T13:34:17;17.98;;;8.70;;
65420;SDS011;52028;50.658;14.004;2023-02-12T13:36:43;18.92;;;7.72;;
65420;SDS011;52028;50.658;14.004;2023-02-12T13:39:17;18.05;;;7.80;;
65420;SDS011;52028;50.658;14.004;2023-02-12T13:41:55;16.40;;;8.50;;
65420;SDS011;52028;50.658;14.004;2023-02-12T14:03:31;24.23;;;11.38;;
65420;SDS011;52028;50.658;14.004;2023-02-12T14:06:16;23.50;;;10.68;;
65420;SDS011;52028;50.658;14.004;2023-02-12T14:08:52;16.52;;;9.20;;
65420;SDS011;52028;50.658;14.004;2023-02-12T14:11:32;22.23;;;9.18;;
65420;SDS011;52028;50.658;14.004;2023-02-12T14:13:59;23.08;;;8.27;;
65420;SDS011;52028;50.658;14.004;2023-02-12T14:19:35;21.77;;;11.02;;
65420;SDS011;52028;50.658;14.004;2023-02-12T14:21:57;17.83;;;8.02;;
65420;SDS011;52028;50.658;14.004;2023-02-12T14:27:01;17.58;;;7.68;;
65420;SDS011;52028;50.658;14.004;2023-02-12T14:29:30;14.38;;;7.00;;
65420;SDS011;52028;50.658;14.004;2023-02-12T14:31:56;16.60;;;7.50;;
65420;SDS011;52028;50.658;14.004;2023-02-12T14:36:47;19.90;;;8.23;;
65420;SDS011;52028;50.658;14.004;2023-02-12T14:39:33;20.60;;;8.45;;
65420;SDS011;52028;50.658;14.004;2023-02-12T14:52:04;24.60;;;12.65;;
65420;SDS011;52028;50.658;14.004;2023-02-12T14:54:42;21.83;;;11.63;;
65420;SDS011;52028;50.658;14.004;2023-02-12T14:59:47;18.77;;;9.85;;
65420;SDS011;52028;50.658;14.004;2023-02-12T15:02:17;22.30;;;9.52;;
65420;SDS011;52028;50.658;14.004;2023-02-12T15:04:48;23.92;;;10.27;;
65420;SDS011;52028;50.658;14.004;2023-02-12T15:07:20;19.90;;;9.40;;
65420;SDS011;52028;50.658;14.004;2023-02-12T15:10:18;17.48;;;9.50;;
65420;SDS011;52028;50.658;14.004;2023-02-12T15:18:42;21.25;;;9.52;;
65420;SDS011;52028;50.658;14.004;2023-02-12T15:26:18;22.48;;;10.05;;
65420;SDS011;52028;50.658;14.004;2023-02-12T15:28:46;20.50;;;10.07;;
65420;SDS011;52028;50.658;14.004;2023-02-12T15:31:15;26.98;;;11.43;;
65420;SDS011;52028;50.658;14.004;2023-02-12T15:33:51;24.35;;;10.93;;
65420;SDS011;52028;50.658;14.004;2023-02-12T15:36:19;23.45;;;11.30;;
65420;SDS011;52028;50.658;14.004;2023-02-12T15:38:47;24.38;;;10.93;;
65420;SDS011;52028;50.658;14.004;2023-02-12T15:41:23;31.45;;;11.60;;
65420;SDS011;52028;50.658;14.004;2023-02-12T15:49:20;24.98;;;12.40;;
65420;SDS011;52028;50.658;14.004;2023-02-12T15:51:46;27.38;;;12.00;;
65420;SDS011;52028;50.658;14.004;2023-02-12T15:54:12;23.88;;;12.25;;
65420;SDS011;52028;50.658;14.004;2023-02-12T15:56:42;29.00;;;12.10;;
65420;SDS011;52028;50.658;14.004;2023-02-12T15:59:14;26.88;;;12.77;;
65420;SDS011;52028;50.658;14.004;2023-02-12T16:01:50;29.70;;;13.13;;
65420;SDS011;52028;50.658;14.004;2023-02-12T16:04:20;25.48;;;14.07;;
65420;SDS011;52028;50.658;14.004;2023-02-12T16:06:47;27.30;;;13.75;;
65420;SDS011;52028;50.658;14.004;2023-02-12T16:09:15;28.98;;;15.38;;
65420;SDS011;52028;50.658;14.004;2023-02-12T16:11:44;28.80;;;14.15;;
65420;SDS011;52028;50.658;14.004;2023-02-12T16:17:25;26.92;;;13.95;;
65420;SDS011;52028;50.658;14.004;2023-02-12T16:22:48;37.88;;;15.77;;
65420;SDS011;52028;50.658;14.004;2023-02-12T16:25:20;36.28;;;16.02;;
65420;SDS011;52028;50.658;14.004;2023-02-12T16:27:57;25.00;;;14.25;;
65420;SDS011;52028;50.658;14.004;2023-02-12T16:30:32;30.65;;;15.48;;
65420;SDS011;52028;50.658;14.004;2023-02-12T16:32:58;28.00;;;14.68;;
65420;SDS011;52028;50.658;14.004;2023-02-12T16:35:28;31.15;;;15.48;;
65420;SDS011;52028;50.658;14.004;2023-02-12T16:38:00;28.27;;;15.10;;
65420;SDS011;52028;50.658;14.004;2023-02-12T16:41:02;29.23;;;14.75;;
65420;SDS011;52028;50.658;14.004;2023-02-12T16:44:19;32.10;;;14.02;;
65420;SDS011;52028;50.658;14.004;2023-02-12T16:46:48;30.98;;;14.98;;
65420;SDS011;52028;50.658;14.004;2023-02-12T16:49:21;27.83;;;14.93;;
65420;SDS011;52028;50.658;14.004;2023-02-12T16:51:48;28.05;;;14.48;;
65420;SDS011;52028;50.658;14.004;2023-02-12T16:54:30;28.27;;;13.77;;
65420;SDS011;52028;50.658;14.004;2023-02-12T16:56:58;25.38;;;14.43;;
65420;SDS011;52028;50.658;14.004;2023-02-12T16:59:24;30.95;;;16.17;;
65420;SDS011;52028;50.658;14.004;2023-02-12T17:02:00;30.95;;;15.38;;
65420;SDS011;52028;50.658;14.004;2023-02-12T17:04:28;29.58;;;14.90;;
65420;SDS011;52028;50.658;14.004;2023-02-12T17:06:54;35.13;;;16.05;;
65420;SDS011;52028;50.658;14.004;2023-02-12T17:09:19;24.00;;;14.60;;
65420;SDS011;52028;50.658;14.004;2023-02-12T17:11:45;29.73;;;15.02;;
65420;SDS011;52028;50.658;14.004;2023-02-12T17:14:13;29.60;;;15.23;;
65420;SDS011;52028;50.658;14.004;2023-02-12T17:16:40;29.20;;;15.40;;
65420;SDS011;52028;50.658;14.004;2023-02-12T17:19:06;31.10;;;16.27;;
65420;SDS011;52028;50.658;14.004;2023-02-12T17:21:32;34.00;;;16.10;;
65420;SDS011;52028;50.658;14.004;2023-02-12T17:24:23;31.25;;;16.73;;
65420;SDS011;52028;50.658;14.004;2023-02-12T17:26:52;32.42;;;15.27;;
65420;SDS011;52028;50.658;14.004;2023-02-12T17:29:19;29.52;;;17.23;;
65420;SDS011;52028;50.658;14.004;2023-02-12T17:31:45;32.33;;;15.57;;
65420;SDS011;52028;50.658;14.004;2023-02-12T17:34:12;33.33;;;15.30;;
65420;SDS011;52028;50.658;14.004;2023-02-12T17:36:38;29.15;;;15.35;;
65420;SDS011;52028;50.658;14.004;2023-02-12T17:39:05;27.77;;;15.70;;
65420;SDS011;52028;50.658;14.004;2023-02-12T17:41:31;32.13;;;15.85;;
65420;SDS011;52028;50.658;14.004;2023-02-12T17:43:56;30.02;;;15.95;;
65420;SDS011;52028;50.658;14.004;2023-02-12T17:46:23;36.00;;;17.10;;
65420;SDS011;52028;50.658;14.004;2023-02-12T17:48:49;38.50;;;17.80;;
65420;SDS011;52028;50.658;14.004;2023-02-12T17:51:15;40.78;;;19.98;;